sensor_id;sensor_type;location;lat;lon;timestamp;P1;durP1;ratioP1;P2;durP2;ratioP2
39196;SDS011;42889;51.112;13.772;2022-07-17T00:00:13;8.32;;;1.08;;
39196;SDS011;42889;51.112;13.772;2022-07-17T00:02:40;4.10;;;1.00;;
39196;SDS011;42889;51.112;13.772;2022-07-17T00:05:07;6.15;;;0.80;;
39196;SDS011;42889;51.112;13.772;2022-07-17T00:07:34;6.90;;;1.00;;
39196;SDS011;42889;51.112;13.772;2022-07-17T00:10:00;3.80;;;0.85;;
39196;SDS011;42889;51.112;13.772;2022-07-17T00:12:27;5.57;;;0.80;;
39196;SDS011;42889;51.112;13.772;2022-07-17T00:14:54;5.07;;;0.88;;
39196;SDS011;42889;51.112;13.772;2022-07-17T00:17:20;4.40;;;1.08;;
39196;SDS011;42889;51.112;13.772;2022-07-17T00:19:47;6.15;;;1.30;;
39196;SDS011;42889;51.112;13.772;2022-07-17T00:22:14;4.70;;;1.70;;
39196;SDS011;42889;51.112;13.772;2022-07-17T00:24:41;6.82;;;1.88;;
39196;SDS011;42889;51.112;13.772;2022-07-17T00:27:07;5.95;;;1.70;;
39196;SDS011;42889;51.112;13.772;2022-07-17T00:29:34;5.75;;;1.85;;
39196;SDS011;42889;51.112;13.772;2022-07-17T00:32:01;4.35;;;1.60;;
39196;SDS011;42889;51.112;13.772;2022-07-17T00:34:28;5.80;;;1.50;;
39196;SDS011;42889;51.112;13.772;2022-07-17T00:36:54;5.93;;;1.63;;
39196;SDS011;42889;51.112;13.772;2022-07-17T00:39:21;4.10;;;1.42;;
39196;SDS011;42889;51.112;13.772;2022-07-17T00:41:48;5.45;;;1.75;;
39196;SDS011;42889;51.112;13.772;2022-07-17T00:44:16;4.32;;;1.23;;
39196;SDS011;42889;51.112;13.772;2022-07-17T00:46:42;4.78;;;1.38;;
39196;SDS011;42889;51.112;13.772;2022-07-17T00:49:09;3.72;;;1.38;;
39196;SDS011;42889;51.112;13.772;2022-07-17T00:51:36;6.70;;;1.40;;
39196;SDS011;42889;51.112;13.772;2022-07-17T00:54:04;4.57;;;1.10;;
39196;SDS011;42889;51.112;13.772;2022-07-17T00:56:34;4.55;;;1.23;;
39196;SDS011;42889;51.112;13.772;2022-07-17T00:59:03;8.55;;;1.60;;
39196;SDS011;42889;51.112;13.772;2022-07-17T01:01:29;4.00;;;1.10;;
39196;SDS011;42889;51.112;13.772;2022-07-17T01:03:58;3.40;;;1.08;;
39196;SDS011;42889;51.112;13.772;2022-07-17T01:06:25;4.20;;;1.10;;
39196;SDS011;42889;51.112;13.772;2022-07-17T01:08:52;4.20;;;1.13;;
39196;SDS011;42889;51.112;13.772;2022-07-17T01:11:19;4.18;;;1.02;;
39196;SDS011;42889;51.112;13.772;2022-07-17T01:13:46;4.65;;;1.10;;
39196;SDS011;42889;51.112;13.772;2022-07-17T01:16:13;3.60;;;0.95;;
39196;SDS011;42889;51.112;13.772;2022-07-17T01:18:41;5.47;;;1.02;;
39196;SDS011;42889;51.112;13.772;2022-07-17T01:21:08;4.45;;;0.82;;
39196;SDS011;42889;51.112;13.772;2022-07-17T01:23:35;3.80;;;0.90;;
39196;SDS011;42889;51.112;13.772;2022-07-17T01:26:01;4.95;;;1.00;;
39196;SDS011;42889;51.112;13.772;2022-07-17T01:28:29;4.63;;;0.93;;
39196;SDS011;42889;51.112;13.772;2022-07-17T01:30:57;6.32;;;1.20;;
39196;SDS011;42889;51.112;13.772;2022-07-17T01:33:23;5.40;;;1.20;;
39196;SDS011;42889;51.112;13.772;2022-07-17T01:35:51;5.07;;;0.75;;
39196;SDS011;42889;51.112;13.772;2022-07-17T01:38:18;4.18;;;0.95;;
39196;SDS011;42889;51.112;13.772;2022-07-17T01:40:45;3.88;;;0.82;;
39196;SDS011;42889;51.112;13.772;2022-07-17T01:43:11;3.22;;;1.00;;
39196;SDS011;42889;51.112;13.772;2022-07-17T01:45:38;8.93;;;1.80;;
39196;SDS011;42889;51.112;13.772;2022-07-17T01:48:06;4.72;;;0.80;;
39196;SDS011;42889;51.112;13.772;2022-07-17T01:50:33;3.38;;;0.80;;
39196;SDS011;42889;51.112;13.772;2022-07-17T01:53:00;4.57;;;0.70;;
39196;SDS011;42889;51.112;13.772;2022-07-17T01:55:27;4.22;;;1.15;;
39196;SDS011;42889;51.112;13.772;2022-07-17T01:57:53;4.53;;;0.80;;
39196;SDS011;42889;51.112;13.772;2022-07-17T02:00:20;3.20;;;0.80;;
39196;SDS011;42889;51.112;13.772;2022-07-17T02:02:50;3.53;;;0.73;;
39196;SDS011;42889;51.112;13.772;2022-07-17T02:05:17;4.20;;;0.93;;
39196;SDS011;42889;51.112;13.772;2022-07-17T02:07:43;3.72;;;0.80;;
39196;SDS011;42889;51.112;13.772;2022-07-17T02:10:11;4.05;;;0.80;;
39196;SDS011;42889;51.112;13.772;2022-07-17T02:12:41;2.65;;;0.95;;
39196;SDS011;42889;51.112;13.772;2022-07-17T02:15:10;3.25;;;0.75;;
39196;SDS011;42889;51.112;13.772;2022-07-17T02:17:39;2.30;;;0.63;;
39196;SDS011;42889;51.112;13.772;2022-07-17T02:20:07;4.30;;;0.70;;
39196;SDS011;42889;51.112;13.772;2022-07-17T02:22:35;3.75;;;0.60;;
39196;SDS011;42889;51.112;13.772;2022-07-17T02:25:03;5.60;;;0.70;;
39196;SDS011;42889;51.112;13.772;2022-07-17T02:27:31;4.03;;;0.88;;
39196;SDS011;42889;51.112;13.772;2022-07-17T02:30:01;6.03;;;0.60;;
39196;SDS011;42889;51.112;13.772;2022-07-17T02:32:29;5.85;;;0.77;;
39196;SDS011;42889;51.112;13.772;2022-07-17T02:34:55;5.22;;;0.80;;
39196;SDS011;42889;51.112;13.772;2022-07-17T02:37:22;6.72;;;0.85;;
39196;SDS011;42889;51.112;13.772;2022-07-17T02:39:49;3.55;;;0.80;;
39196;SDS011;42889;51.112;13.772;2022-07-17T02:42:20;5.35;;;0.70;;
39196;SDS011;42889;51.112;13.772;2022-07-17T02:44:48;9.38;;;0.90;;
39196;SDS011;42889;51.112;13.772;2022-07-17T02:47:24;2.97;;;0.70;;
39196;SDS011;42889;51.112;13.772;2022-07-17T02:49:53;3.78;;;0.75;;
39196;SDS011;42889;51.112;13.772;2022-07-17T02:52:20;3.70;;;0.75;;
39196;SDS011;42889;51.112;13.772;2022-07-17T02:54:47;4.72;;;0.73;;
39196;SDS011;42889;51.112;13.772;2022-07-17T02:57:14;4.40;;;0.98;;
39196;SDS011;42889;51.112;13.772;2022-07-17T02:59:42;4.88;;;0.75;;
39196;SDS011;42889;51.112;13.772;2022-07-17T03:02:08;3.20;;;0.60;;
39196;SDS011;42889;51.112;13.772;2022-07-17T03:04:35;4.78;;;1.00;;
39196;SDS011;42889;51.112;13.772;2022-07-17T03:07:02;7.47;;;1.02;;
39196;SDS011;42889;51.112;13.772;2022-07-17T03:09:29;5.35;;;0.80;;
39196;SDS011;42889;51.112;13.772;2022-07-17T03:11:56;3.70;;;0.55;;
39196;SDS011;42889;51.112;13.772;2022-07-17T03:14:22;3.33;;;0.65;;
39196;SDS011;42889;51.112;13.772;2022-07-17T03:16:49;3.75;;;0.68;;
39196;SDS011;42889;51.112;13.772;2022-07-17T03:19:16;3.63;;;0.80;;
39196;SDS011;42889;51.112;13.772;2022-07-17T03:21:42;5.70;;;0.80;;
39196;SDS011;42889;51.112;13.772;2022-07-17T03:24:10;4.20;;;0.63;;
39196;SDS011;42889;51.112;13.772;2022-07-17T03:26:36;3.88;;;0.80;;
39196;SDS011;42889;51.112;13.772;2022-07-17T03:29:03;4.57;;;0.68;;
39196;SDS011;42889;51.112;13.772;2022-07-17T03:31:30;2.55;;;0.90;;
39196;SDS011;42889;51.112;13.772;2022-07-17T03:33:58;5.40;;;0.82;;
39196;SDS011;42889;51.112;13.772;2022-07-17T03:36:24;4.82;;;1.20;;
39196;SDS011;42889;51.112;13.772;2022-07-17T03:38:51;5.55;;;0.90;;
39196;SDS011;42889;51.112;13.772;2022-07-17T03:41:18;4.15;;;1.00;;
39196;SDS011;42889;51.112;13.772;2022-07-17T03:43:45;3.88;;;0.95;;
39196;SDS011;42889;51.112;13.772;2022-07-17T03:46:12;2.97;;;0.80;;
39196;SDS011;42889;51.112;13.772;2022-07-17T03:48:38;4.82;;;0.90;;
39196;SDS011;42889;51.112;13.772;2022-07-17T03:51:05;3.90;;;0.80;;
39196;SDS011;42889;51.112;13.772;2022-07-17T03:53:31;8.32;;;0.98;;
39196;SDS011;42889;51.112;13.772;2022-07-17T03:55:58;4.38;;;0.90;;
39196;SDS011;42889;51.112;13.772;2022-07-17T03:58:25;3.20;;;1.10;;
39196;SDS011;42889;51.112;13.772;2022-07-17T04:00:51;4.00;;;0.70;;
39196;SDS011;42889;51.112;13.772;2022-07-17T04:03:18;6.85;;;0.75;;
39196;SDS011;42889;51.112;13.772;2022-07-17T04:05:44;4.45;;;0.65;;
39196;SDS011;42889;51.112;13.772;2022-07-17T04:08:11;5.05;;;0.93;;
39196;SDS011;42889;51.112;13.772;2022-07-17T04:10:39;3.65;;;0.82;;
39196;SDS011;42889;51.112;13.772;2022-07-17T04:13:05;4.32;;;0.80;;
39196;SDS011;42889;51.112;13.772;2022-07-17T04:15:32;5.47;;;1.00;;
39196;SDS011;42889;51.112;13.772;2022-07-17T04:18:24;6.43;;;0.95;;
39196;SDS011;42889;51.112;13.772;2022-07-17T04:20:53;5.40;;;0.88;;
39196;SDS011;42889;51.112;13.772;2022-07-17T04:23:22;5.15;;;1.00;;
39196;SDS011;42889;51.112;13.772;2022-07-17T04:25:48;6.50;;;0.90;;
39196;SDS011;42889;51.112;13.772;2022-07-17T04:28:15;4.75;;;0.82;;
39196;SDS011;42889;51.112;13.772;2022-07-17T04:30:42;3.95;;;0.80;;
39196;SDS011;42889;51.112;13.772;2022-07-17T04:33:08;3.70;;;0.90;;
39196;SDS011;42889;51.112;13.772;2022-07-17T04:35:35;3.88;;;1.05;;
39196;SDS011;42889;51.112;13.772;2022-07-17T04:38:02;5.63;;;0.82;;
39196;SDS011;42889;51.112;13.772;2022-07-17T04:40:33;3.55;;;1.02;;
39196;SDS011;42889;51.112;13.772;2022-07-17T04:43:00;3.25;;;0.80;;
39196;SDS011;42889;51.112;13.772;2022-07-17T04:45:27;4.18;;;1.17;;
39196;SDS011;42889;51.112;13.772;2022-07-17T04:47:54;5.43;;;0.68;;
39196;SDS011;42889;51.112;13.772;2022-07-17T04:50:20;5.05;;;0.75;;
39196;SDS011;42889;51.112;13.772;2022-07-17T04:52:47;5.25;;;1.02;;
39196;SDS011;42889;51.112;13.772;2022-07-17T04:55:14;6.00;;;1.20;;
39196;SDS011;42889;51.112;13.772;2022-07-17T04:57:41;6.95;;;1.60;;
39196;SDS011;42889;51.112;13.772;2022-07-17T05:00:08;6.75;;;1.20;;
39196;SDS011;42889;51.112;13.772;2022-07-17T05:02:36;5.47;;;1.10;;
39196;SDS011;42889;51.112;13.772;2022-07-17T05:05:04;4.50;;;1.30;;
39196;SDS011;42889;51.112;13.772;2022-07-17T05:07:31;7.13;;;1.10;;
39196;SDS011;42889;51.112;13.772;2022-07-17T05:09:57;6.05;;;1.13;;
39196;SDS011;42889;51.112;13.772;2022-07-17T05:12:24;3.42;;;1.00;;
39196;SDS011;42889;51.112;13.772;2022-07-17T05:14:50;6.47;;;1.08;;
39196;SDS011;42889;51.112;13.772;2022-07-17T05:17:17;3.58;;;0.70;;
39196;SDS011;42889;51.112;13.772;2022-07-17T05:19:43;4.07;;;0.77;;
39196;SDS011;42889;51.112;13.772;2022-07-17T05:22:10;3.55;;;0.80;;
39196;SDS011;42889;51.112;13.772;2022-07-17T05:24:36;6.35;;;0.80;;
39196;SDS011;42889;51.112;13.772;2022-07-17T05:27:04;5.47;;;0.80;;
39196;SDS011;42889;51.112;13.772;2022-07-17T05:29:30;3.15;;;0.75;;
39196;SDS011;42889;51.112;13.772;2022-07-17T05:31:57;5.55;;;1.00;;
39196;SDS011;42889;51.112;13.772;2022-07-17T05:34:23;5.82;;;0.95;;
39196;SDS011;42889;51.112;13.772;2022-07-17T05:36:50;8.15;;;1.10;;
39196;SDS011;42889;51.112;13.772;2022-07-17T05:39:16;4.25;;;0.80;;
39196;SDS011;42889;51.112;13.772;2022-07-17T05:41:43;4.88;;;1.33;;
39196;SDS011;42889;51.112;13.772;2022-07-17T05:44:10;4.55;;;0.65;;
39196;SDS011;42889;51.112;13.772;2022-07-17T05:46:36;3.90;;;0.70;;
39196;SDS011;42889;51.112;13.772;2022-07-17T05:49:03;6.38;;;0.80;;
39196;SDS011;42889;51.112;13.772;2022-07-17T05:51:30;6.18;;;1.00;;
39196;SDS011;42889;51.112;13.772;2022-07-17T05:53:57;5.20;;;0.88;;
39196;SDS011;42889;51.112;13.772;2022-07-17T05:56:24;5.95;;;0.70;;
39196;SDS011;42889;51.112;13.772;2022-07-17T05:58:50;4.25;;;0.90;;
39196;SDS011;42889;51.112;13.772;2022-07-17T06:01:17;4.32;;;0.80;;
39196;SDS011;42889;51.112;13.772;2022-07-17T06:03:43;3.53;;;0.82;;
39196;SDS011;42889;51.112;13.772;2022-07-17T06:06:10;4.18;;;0.75;;
39196;SDS011;42889;51.112;13.772;2022-07-17T06:08:37;2.75;;;0.70;;
39196;SDS011;42889;51.112;13.772;2022-07-17T06:11:03;5.88;;;0.65;;
39196;SDS011;42889;51.112;13.772;2022-07-17T06:13:30;7.22;;;0.50;;
39196;SDS011;42889;51.112;13.772;2022-07-17T06:15:57;5.45;;;0.60;;
39196;SDS011;42889;51.112;13.772;2022-07-17T06:18:25;2.55;;;0.38;;
39196;SDS011;42889;51.112;13.772;2022-07-17T06:20:52;6.30;;;0.65;;
39196;SDS011;42889;51.112;13.772;2022-07-17T06:23:19;3.70;;;0.60;;
39196;SDS011;42889;51.112;13.772;2022-07-17T06:25:46;7.15;;;0.80;;
39196;SDS011;42889;51.112;13.772;2022-07-17T06:28:12;3.75;;;0.40;;
39196;SDS011;42889;51.112;13.772;2022-07-17T06:30:39;6.40;;;0.50;;
39196;SDS011;42889;51.112;13.772;2022-07-17T06:33:05;5.35;;;0.50;;
39196;SDS011;42889;51.112;13.772;2022-07-17T06:35:32;7.78;;;0.77;;
39196;SDS011;42889;51.112;13.772;2022-07-17T06:38:01;3.00;;;0.40;;
39196;SDS011;42889;51.112;13.772;2022-07-17T06:40:29;6.45;;;0.65;;
39196;SDS011;42889;51.112;13.772;2022-07-17T06:42:56;3.22;;;0.40;;
39196;SDS011;42889;51.112;13.772;2022-07-17T06:45:22;7.10;;;0.55;;
39196;SDS011;42889;51.112;13.772;2022-07-17T06:47:49;2.50;;;0.52;;
39196;SDS011;42889;51.112;13.772;2022-07-17T06:50:15;5.00;;;0.40;;
39196;SDS011;42889;51.112;13.772;2022-07-17T06:52:42;4.03;;;0.63;;
39196;SDS011;42889;51.112;13.772;2022-07-17T06:55:12;5.05;;;0.50;;
39196;SDS011;42889;51.112;13.772;2022-07-17T06:57:39;4.25;;;0.50;;
39196;SDS011;42889;51.112;13.772;2022-07-17T07:00:05;2.33;;;0.40;;
39196;SDS011;42889;51.112;13.772;2022-07-17T07:02:35;3.42;;;0.43;;
39196;SDS011;42889;51.112;13.772;2022-07-17T07:05:01;6.95;;;0.68;;
39196;SDS011;42889;51.112;13.772;2022-07-17T07:07:28;5.00;;;0.95;;
39196;SDS011;42889;51.112;13.772;2022-07-17T07:09:55;5.60;;;0.70;;
39196;SDS011;42889;51.112;13.772;2022-07-17T07:12:21;4.75;;;0.60;;
39196;SDS011;42889;51.112;13.772;2022-07-17T07:14:48;3.65;;;0.40;;
39196;SDS011;42889;51.112;13.772;2022-07-17T07:17:15;6.95;;;0.65;;
39196;SDS011;42889;51.112;13.772;2022-07-17T07:19:41;5.40;;;0.55;;
39196;SDS011;42889;51.112;13.772;2022-07-17T07:22:08;6.57;;;0.60;;
39196;SDS011;42889;51.112;13.772;2022-07-17T07:24:35;3.45;;;0.35;;
39196;SDS011;42889;51.112;13.772;2022-07-17T07:27:04;4.57;;;0.60;;
39196;SDS011;42889;51.112;13.772;2022-07-17T07:29:31;7.18;;;0.63;;
39196;SDS011;42889;51.112;13.772;2022-07-17T07:31:57;2.92;;;0.50;;
39196;SDS011;42889;51.112;13.772;2022-07-17T07:34:24;7.78;;;0.50;;
39196;SDS011;42889;51.112;13.772;2022-07-17T07:36:51;7.10;;;0.70;;
39196;SDS011;42889;51.112;13.772;2022-07-17T07:39:17;4.68;;;0.50;;
39196;SDS011;42889;51.112;13.772;2022-07-17T07:41:44;4.57;;;0.60;;
39196;SDS011;42889;51.112;13.772;2022-07-17T07:44:10;3.78;;;0.50;;
39196;SDS011;42889;51.112;13.772;2022-07-17T07:46:41;9.00;;;0.63;;
39196;SDS011;42889;51.112;13.772;2022-07-17T07:49:07;7.70;;;0.75;;
39196;SDS011;42889;51.112;13.772;2022-07-17T07:51:36;4.30;;;0.45;;
39196;SDS011;42889;51.112;13.772;2022-07-17T07:54:22;4.03;;;0.50;;
39196;SDS011;42889;51.112;13.772;2022-07-17T07:56:49;4.93;;;0.50;;
39196;SDS011;42889;51.112;13.772;2022-07-17T07:59:16;5.35;;;0.70;;
39196;SDS011;42889;51.112;13.772;2022-07-17T08:01:43;5.85;;;0.50;;
39196;SDS011;42889;51.112;13.772;2022-07-17T08:04:09;5.88;;;0.75;;
39196;SDS011;42889;51.112;13.772;2022-07-17T08:06:36;5.10;;;0.70;;
39196;SDS011;42889;51.112;13.772;2022-07-17T08:09:02;3.88;;;0.70;;
39196;SDS011;42889;51.112;13.772;2022-07-17T08:11:29;4.70;;;0.50;;
39196;SDS011;42889;51.112;13.772;2022-07-17T08:13:56;4.35;;;0.47;;
39196;SDS011;42889;51.112;13.772;2022-07-17T08:16:29;5.07;;;0.50;;
39196;SDS011;42889;51.112;13.772;2022-07-17T08:18:56;5.57;;;0.47;;
39196;SDS011;42889;51.112;13.772;2022-07-17T08:21:23;3.55;;;0.55;;
39196;SDS011;42889;51.112;13.772;2022-07-17T08:23:49;2.65;;;0.50;;
39196;SDS011;42889;51.112;13.772;2022-07-17T08:26:16;4.43;;;0.50;;
39196;SDS011;42889;51.112;13.772;2022-07-17T08:28:43;3.25;;;0.30;;
39196;SDS011;42889;51.112;13.772;2022-07-17T08:31:10;4.28;;;0.40;;
39196;SDS011;42889;51.112;13.772;2022-07-17T08:33:37;4.68;;;0.50;;
39196;SDS011;42889;51.112;13.772;2022-07-17T08:36:03;5.30;;;0.55;;
39196;SDS011;42889;51.112;13.772;2022-07-17T08:38:30;3.05;;;0.50;;
39196;SDS011;42889;51.112;13.772;2022-07-17T08:40:57;5.28;;;0.43;;
39196;SDS011;42889;51.112;13.772;2022-07-17T08:43:25;3.88;;;0.60;;
39196;SDS011;42889;51.112;13.772;2022-07-17T08:45:52;6.30;;;0.70;;
39196;SDS011;42889;51.112;13.772;2022-07-17T08:48:19;7.88;;;0.73;;
39196;SDS011;42889;51.112;13.772;2022-07-17T08:50:46;3.47;;;0.63;;
39196;SDS011;42889;51.112;13.772;2022-07-17T08:53:13;2.72;;;0.30;;
39196;SDS011;42889;51.112;13.772;2022-07-17T08:55:43;4.53;;;0.50;;
39196;SDS011;42889;51.112;13.772;2022-07-17T08:58:13;3.03;;;0.47;;
39196;SDS011;42889;51.112;13.772;2022-07-17T09:00:41;4.90;;;0.45;;
39196;SDS011;42889;51.112;13.772;2022-07-17T09:03:08;3.72;;;0.50;;
39196;SDS011;42889;51.112;13.772;2022-07-17T09:05:36;4.13;;;0.57;;
39196;SDS011;42889;51.112;13.772;2022-07-17T09:08:05;4.65;;;0.43;;
39196;SDS011;42889;51.112;13.772;2022-07-17T09:10:35;3.90;;;0.50;;
39196;SDS011;42889;51.112;13.772;2022-07-17T09:13:13;4.63;;;0.50;;
39196;SDS011;42889;51.112;13.772;2022-07-17T09:15:45;3.35;;;0.45;;
39196;SDS011;42889;51.112;13.772;2022-07-17T09:18:12;3.00;;;0.43;;
39196;SDS011;42889;51.112;13.772;2022-07-17T09:20:43;2.58;;;0.40;;
39196;SDS011;42889;51.112;13.772;2022-07-17T09:23:21;4.15;;;0.50;;
39196;SDS011;42889;51.112;13.772;2022-07-17T09:25:53;4.82;;;0.70;;
39196;SDS011;42889;51.112;13.772;2022-07-17T09:28:22;4.70;;;0.55;;
39196;SDS011;42889;51.112;13.772;2022-07-17T09:30:51;3.75;;;0.40;;
39196;SDS011;42889;51.112;13.772;2022-07-17T09:33:25;4.85;;;0.50;;
39196;SDS011;42889;51.112;13.772;2022-07-17T09:38:36;4.53;;;0.50;;
39196;SDS011;42889;51.112;13.772;2022-07-17T09:43:47;4.53;;;0.30;;
39196;SDS011;42889;51.112;13.772;2022-07-17T09:46:15;3.80;;;0.50;;
39196;SDS011;42889;51.112;13.772;2022-07-17T09:48:45;5.20;;;0.52;;
39196;SDS011;42889;51.112;13.772;2022-07-17T09:51:26;4.60;;;0.40;;
39196;SDS011;42889;51.112;13.772;2022-07-17T09:53:58;2.67;;;0.40;;
39196;SDS011;42889;51.112;13.772;2022-07-17T09:56:27;3.35;;;0.40;;
39196;SDS011;42889;51.112;13.772;2022-07-17T09:59:02;3.83;;;0.30;;
39196;SDS011;42889;51.112;13.772;2022-07-17T10:01:30;4.07;;;0.55;;
39196;SDS011;42889;51.112;13.772;2022-07-17T10:04:00;3.63;;;0.40;;
39196;SDS011;42889;51.112;13.772;2022-07-17T10:06:27;2.80;;;0.35;;
39196;SDS011;42889;51.112;13.772;2022-07-17T10:08:55;4.00;;;0.45;;
39196;SDS011;42889;51.112;13.772;2022-07-17T10:11:23;5.22;;;0.55;;
39196;SDS011;42889;51.112;13.772;2022-07-17T10:13:52;3.50;;;0.50;;
39196;SDS011;42889;51.112;13.772;2022-07-17T10:16:25;2.90;;;0.50;;
39196;SDS011;42889;51.112;13.772;2022-07-17T10:18:54;3.05;;;0.47;;
39196;SDS011;42889;51.112;13.772;2022-07-17T10:21:22;3.17;;;0.40;;
39196;SDS011;42889;51.112;13.772;2022-07-17T10:26:31;3.70;;;0.32;;
39196;SDS011;42889;51.112;13.772;2022-07-17T10:29:24;5.07;;;0.50;;
39196;SDS011;42889;51.112;13.772;2022-07-17T10:31:51;2.75;;;0.47;;
39196;SDS011;42889;51.112;13.772;2022-07-17T10:34:21;4.00;;;0.40;;
39196;SDS011;42889;51.112;13.772;2022-07-17T10:37:13;2.83;;;0.40;;
39196;SDS011;42889;51.112;13.772;2022-07-17T10:39:51;3.22;;;0.50;;
39196;SDS011;42889;51.112;13.772;2022-07-17T10:50:18;4.97;;;0.60;;
39196;SDS011;42889;51.112;13.772;2022-07-17T10:53:00;2.72;;;0.45;;
39196;SDS011;42889;51.112;13.772;2022-07-17T10:55:33;4.55;;;0.40;;
39196;SDS011;42889;51.112;13.772;2022-07-17T10:58:02;3.20;;;0.40;;
39196;SDS011;42889;51.112;13.772;2022-07-17T11:00:30;2.15;;;0.20;;
39196;SDS011;42889;51.112;13.772;2022-07-17T11:03:07;3.25;;;0.47;;
39196;SDS011;42889;51.112;13.772;2022-07-17T11:05:34;2.72;;;0.30;;
39196;SDS011;42889;51.112;13.772;2022-07-17T11:08:01;3.42;;;0.35;;
39196;SDS011;42889;51.112;13.772;2022-07-17T11:10:32;3.20;;;0.40;;
39196;SDS011;42889;51.112;13.772;2022-07-17T11:13:09;3.15;;;0.40;;
39196;SDS011;42889;51.112;13.772;2022-07-17T11:15:43;3.63;;;0.40;;
39196;SDS011;42889;51.112;13.772;2022-07-17T11:18:14;3.45;;;0.40;;
39196;SDS011;42889;51.112;13.772;2022-07-17T11:20:56;6.50;;;0.57;;
39196;SDS011;42889;51.112;13.772;2022-07-17T11:23:26;3.95;;;0.40;;
39196;SDS011;42889;51.112;13.772;2022-07-17T11:28:31;4.35;;;0.60;;
39196;SDS011;42889;51.112;13.772;2022-07-17T11:30:58;3.28;;;0.35;;
39196;SDS011;42889;51.112;13.772;2022-07-17T11:33:26;4.95;;;0.60;;
39196;SDS011;42889;51.112;13.772;2022-07-17T11:35:53;2.97;;;0.47;;
39196;SDS011;42889;51.112;13.772;2022-07-17T11:40:51;4.13;;;0.63;;
39196;SDS011;42889;51.112;13.772;2022-07-17T11:43:24;2.40;;;0.30;;
39196;SDS011;42889;51.112;13.772;2022-07-17T11:45:51;3.22;;;0.50;;
39196;SDS011;42889;51.112;13.772;2022-07-17T11:48:18;4.63;;;0.60;;
39196;SDS011;42889;51.112;13.772;2022-07-17T11:50:54;3.85;;;0.50;;
39196;SDS011;42889;51.112;13.772;2022-07-17T11:53:30;2.60;;;0.40;;
39196;SDS011;42889;51.112;13.772;2022-07-17T11:55:58;3.75;;;0.40;;
39196;SDS011;42889;51.112;13.772;2022-07-17T11:58:25;4.22;;;0.40;;
39196;SDS011;42889;51.112;13.772;2022-07-17T12:01:04;3.15;;;0.45;;
39196;SDS011;42889;51.112;13.772;2022-07-17T12:03:31;3.00;;;0.40;;
39196;SDS011;42889;51.112;13.772;2022-07-17T12:05:58;2.33;;;0.30;;
39196;SDS011;42889;51.112;13.772;2022-07-17T12:08:25;3.22;;;0.40;;
39196;SDS011;42889;51.112;13.772;2022-07-17T12:10:59;4.03;;;0.70;;
39196;SDS011;42889;51.112;13.772;2022-07-17T12:13:39;4.55;;;0.40;;
39196;SDS011;42889;51.112;13.772;2022-07-17T12:16:20;3.65;;;0.40;;
39196;SDS011;42889;51.112;13.772;2022-07-17T12:18:59;3.63;;;1.00;;
39196;SDS011;42889;51.112;13.772;2022-07-17T12:21:27;3.03;;;0.30;;
39196;SDS011;42889;51.112;13.772;2022-07-17T12:24:02;3.92;;;0.40;;
39196;SDS011;42889;51.112;13.772;2022-07-17T12:26:33;1.40;;;0.22;;
39196;SDS011;42889;51.112;13.772;2022-07-17T12:29:00;4.10;;;0.40;;
39196;SDS011;42889;51.112;13.772;2022-07-17T12:31:27;3.05;;;0.40;;
39196;SDS011;42889;51.112;13.772;2022-07-17T12:33:54;4.05;;;0.30;;
39196;SDS011;42889;51.112;13.772;2022-07-17T12:36:22;3.95;;;0.40;;
39196;SDS011;42889;51.112;13.772;2022-07-17T12:38:49;2.20;;;0.32;;
39196;SDS011;42889;51.112;13.772;2022-07-17T12:41:16;3.17;;;0.30;;
39196;SDS011;42889;51.112;13.772;2022-07-17T12:43:43;3.47;;;0.40;;
39196;SDS011;42889;51.112;13.772;2022-07-17T12:46:10;2.28;;;0.20;;
39196;SDS011;42889;51.112;13.772;2022-07-17T12:48:52;2.08;;;0.45;;
39196;SDS011;42889;51.112;13.772;2022-07-17T12:51:19;3.03;;;0.40;;
39196;SDS011;42889;51.112;13.772;2022-07-17T12:53:46;2.88;;;0.50;;
39196;SDS011;42889;51.112;13.772;2022-07-17T12:56:13;3.58;;;0.30;;
39196;SDS011;42889;51.112;13.772;2022-07-17T12:58:39;2.63;;;0.30;;
39196;SDS011;42889;51.112;13.772;2022-07-17T13:01:06;3.83;;;0.40;;
39196;SDS011;42889;51.112;13.772;2022-07-17T13:03:33;3.30;;;1.20;;
39196;SDS011;42889;51.112;13.772;2022-07-17T13:06:00;6.60;;;2.95;;
39196;SDS011;42889;51.112;13.772;2022-07-17T13:08:28;3.33;;;0.40;;
39196;SDS011;42889;51.112;13.772;2022-07-17T13:10:56;5.65;;;2.25;;
39196;SDS011;42889;51.112;13.772;2022-07-17T13:13:23;4.13;;;0.85;;
39196;SDS011;42889;51.112;13.772;2022-07-17T13:15:50;2.85;;;0.63;;
39196;SDS011;42889;51.112;13.772;2022-07-17T13:18:17;3.03;;;0.40;;
39196;SDS011;42889;51.112;13.772;2022-07-17T13:20:44;4.22;;;0.50;;
39196;SDS011;42889;51.112;13.772;2022-07-17T13:23:10;3.90;;;0.30;;
39196;SDS011;42889;51.112;13.772;2022-07-17T13:25:38;2.03;;;0.32;;
39196;SDS011;42889;51.112;13.772;2022-07-17T13:28:06;2.90;;;0.30;;
39196;SDS011;42889;51.112;13.772;2022-07-17T13:30:33;2.88;;;0.40;;
39196;SDS011;42889;51.112;13.772;2022-07-17T13:33:01;3.40;;;0.60;;
39196;SDS011;42889;51.112;13.772;2022-07-17T13:35:28;2.08;;;0.30;;
39196;SDS011;42889;51.112;13.772;2022-07-17T13:37:55;3.80;;;0.40;;
39196;SDS011;42889;51.112;13.772;2022-07-17T13:40:23;2.25;;;0.28;;
39196;SDS011;42889;51.112;13.772;2022-07-17T13:42:51;2.67;;;0.30;;
39196;SDS011;42889;51.112;13.772;2022-07-17T13:45:18;4.30;;;0.40;;
39196;SDS011;42889;51.112;13.772;2022-07-17T13:47:44;2.50;;;0.30;;
39196;SDS011;42889;51.112;13.772;2022-07-17T13:50:11;3.28;;;0.40;;
39196;SDS011;42889;51.112;13.772;2022-07-17T13:52:40;3.70;;;0.30;;
39196;SDS011;42889;51.112;13.772;2022-07-17T13:55:07;2.05;;;0.20;;
39196;SDS011;42889;51.112;13.772;2022-07-17T13:57:54;2.70;;;0.40;;
39196;SDS011;42889;51.112;13.772;2022-07-17T14:00:20;3.80;;;0.50;;
39196;SDS011;42889;51.112;13.772;2022-07-17T14:02:47;2.47;;;0.30;;
39196;SDS011;42889;51.112;13.772;2022-07-17T14:05:14;3.20;;;0.40;;
39196;SDS011;42889;51.112;13.772;2022-07-17T14:07:40;3.95;;;0.50;;
39196;SDS011;42889;51.112;13.772;2022-07-17T14:10:07;3.85;;;0.52;;
39196;SDS011;42889;51.112;13.772;2022-07-17T14:12:34;3.70;;;0.50;;
39196;SDS011;42889;51.112;13.772;2022-07-17T14:15:01;5.80;;;0.50;;
39196;SDS011;42889;51.112;13.772;2022-07-17T14:17:28;2.00;;;0.30;;
39196;SDS011;42889;51.112;13.772;2022-07-17T14:19:54;5.75;;;0.40;;
39196;SDS011;42889;51.112;13.772;2022-07-17T14:22:21;5.03;;;1.60;;
39196;SDS011;42889;51.112;13.772;2022-07-17T14:24:48;3.53;;;0.40;;
39196;SDS011;42889;51.112;13.772;2022-07-17T14:27:14;5.75;;;0.68;;
39196;SDS011;42889;51.112;13.772;2022-07-17T14:29:41;2.95;;;0.20;;
39196;SDS011;42889;51.112;13.772;2022-07-17T14:32:07;2.70;;;0.40;;
39196;SDS011;42889;51.112;13.772;2022-07-17T14:34:34;2.50;;;0.40;;
39196;SDS011;42889;51.112;13.772;2022-07-17T14:37:01;3.08;;;0.30;;
39196;SDS011;42889;51.112;13.772;2022-07-17T14:39:29;2.28;;;0.30;;
39196;SDS011;42889;51.112;13.772;2022-07-17T14:41:55;2.92;;;0.32;;
39196;SDS011;42889;51.112;13.772;2022-07-17T14:44:22;5.03;;;0.32;;
39196;SDS011;42889;51.112;13.772;2022-07-17T14:46:49;3.60;;;0.30;;
39196;SDS011;42889;51.112;13.772;2022-07-17T14:49:16;3.60;;;0.70;;
39196;SDS011;42889;51.112;13.772;2022-07-17T14:51:49;4.35;;;0.32;;
39196;SDS011;42889;51.112;13.772;2022-07-17T14:54:16;3.25;;;0.50;;
39196;SDS011;42889;51.112;13.772;2022-07-17T14:56:42;2.65;;;0.30;;
39196;SDS011;42889;51.112;13.772;2022-07-17T14:59:09;4.25;;;0.40;;